Time;durP1;ratioP1;P1;durP2;ratioP2;P2;SDS_P1;SDS_P2;PMS_P1;PMS_P2;Temp;Humidity;BMP_temperature;BMP_pressure;BME280_temperature;BME280_humidity;BME280_pressure;Samples;Min_cycle;Max_cycle;Signal;HPM_P1;HPM_P2
2023/08/21 00:01:05;;;;;;;10.40;9.40;;;;;;;24.75;nan;99892.66;5054678;28;20197;-76
2023/08/21 00:03:31;;;;;;;9.83;8.83;;;;;;;24.70;nan;99897.75;5050693;28;20224;-76
2023/08/21 00:05:56;;;;;;;9.87;9.03;;;;;;;24.66;nan;99896.47;5054360;28;20205;-75
2023/08/21 00:08:21;;;;;;;10.93;9.00;;;;;;;24.63;nan;99894.13;5052805;28;21146;-76
2023/08/21 00:10:47;;;;;;;8.70;7.90;;;;;;;24.61;nan;99890.78;5056760;28;20292;-75
2023/08/21 00:13:13;;;;;;;9.93;8.93;;;;;;;24.59;nan;99892.81;5047882;28;20209;-75
2023/08/21 00:15:39;;;;;;;13.37;9.33;;;;;;;24.56;nan;99891.31;5055333;28;20455;-75
2023/08/21 00:18:05;;;;;;;10.67;9.57;;;;;;;24.54;nan;99898.72;5054817;28;20197;-76
2023/08/21 00:20:30;;;;;;;10.33;9.20;;;;;;;24.51;nan;99889.19;5051047;28;20204;-76
2023/08/21 00:22:56;;;;;;;11.67;8.73;;;;;;;24.48;nan;99889.53;5050821;28;20512;-76
2023/08/21 00:25:22;;;;;;;10.60;9.50;;;;;;;24.46;nan;99883.50;5055593;28;20311;-75
2023/08/21 00:27:48;;;;;;;10.73;9.83;;;;;;;24.47;nan;99887.06;5054598;28;20230;-76
2023/08/21 00:30:14;;;;;;;9.47;8.60;;;;;;;24.46;nan;99891.56;5049949;28;20456;-75
2023/08/21 00:32:41;;;;;;;12.23;9.93;;;;;;;24.46;nan;99888.06;5058949;28;20189;-75
2023/08/21 00:35:08;;;;;;;9.50;8.67;;;;;;;24.47;nan;99885.19;5051718;28;20535;-75
2023/08/21 00:37:33;;;;;;;9.23;8.33;;;;;;;24.49;nan;99879.63;5053522;28;20226;-75
2023/08/21 00:39:58;;;;;;;10.37;9.37;;;;;;;24.48;nan;99886.84;5052880;28;20462;-76
2023/08/21 00:42:24;;;;;;;12.80;9.00;;;;;;;24.47;nan;99884.38;5026516;28;20272;-75
2023/08/21 00:44:49;;;;;;;9.90;8.80;;;;;;;24.44;nan;99884.75;5031171;28;20208;-75
2023/08/21 00:47:15;;;;;;;10.30;8.83;;;;;;;24.43;nan;99878.47;5056818;28;20293;-75
2023/08/21 00:49:40;;;;;;;10.53;9.53;;;;;;;24.44;nan;99877.50;5051969;28;20228;-75
2023/08/21 00:52:10;;;;;;;8.60;7.80;;;;;;;24.47;nan;99881.69;5056079;28;20672;-76
2023/08/21 00:54:36;;;;;;;8.00;7.30;;;;;;;24.47;nan;99877.13;5028015;28;20203;-75
2023/08/21 00:57:02;;;;;;;8.47;7.60;;;;;;;24.48;nan;99873.44;5034728;28;20833;-76
2023/08/21 00:59:29;;;;;;;8.43;7.63;;;;;;;24.49;nan;99872.44;5026860;28;20214;-75
2023/08/21 01:01:54;;;;;;;8.00;7.20;;;;;;;24.53;nan;99874.75;5052347;28;20456;-75
2023/08/21 01:04:20;;;;;;;8.17;7.30;;;;;;;24.55;nan;99875.38;5033200;28;20454;-75
2023/08/21 01:06:45;;;;;;;9.03;8.23;;;;;;;24.58;nan;99878.56;5050633;28;20248;-75
2023/08/21 01:09:36;;;;;;;7.77;7.07;;;;;;;24.61;nan;99878.19;5033746;28;20191;-76
2023/08/21 01:12:13;;;;;;;12.10;8.60;;;;;;;24.61;nan;99880.03;5053135;28;20219;-76
2023/08/21 01:14:57;;;;;;;7.47;6.80;;;;;;;24.62;nan;99870.97;5048551;28;20509;-76
2023/08/21 01:17:23;;;;;;;7.97;7.27;;;;;;;24.64;nan;99877.00;5054594;28;20462;-75
2023/08/21 01:19:50;;;;;;;8.90;8.00;;;;;;;24.64;nan;99887.75;5030979;28;20486;-75
2023/08/21 01:22:15;;;;;;;10.73;7.70;;;;;;;24.64;nan;99887.75;5055039;28;20749;-76
2023/08/21 01:24:41;;;;;;;8.43;7.77;;;;;;;24.64;nan;99885.06;5029305;28;20593;-76
2023/08/21 01:27:07;;;;;;;8.43;7.60;;;;;;;24.67;nan;99879.31;5052388;28;20219;-76
2023/08/21 01:29:33;;;;;;;9.50;8.40;;;;;;;24.67;nan;99882.00;5053187;28;20212;-76
2023/08/21 01:32:07;;;;;;;9.27;8.37;;;;;;;24.69;nan;99879.97;5033734;28;20455;-75
2023/08/21 01:34:34;;;;;;;9.40;8.40;;;;;;;24.71;nan;99883.31;5055358;28;20818;-76
2023/08/21 01:37:01;;;;;;;10.67;8.13;;;;;;;24.72;nan;99880.44;5032161;28;20584;-75
2023/08/21 01:39:28;;;;;;;12.27;9.47;;;;;;;24.73;nan;99887.50;5052704;28;20477;-76
2023/08/21 01:41:53;;;;;;;10.23;9.03;;;;;;;24.74;nan;99880.25;5047994;28;20447;-76
2023/08/21 01:44:20;;;;;;;10.57;9.00;;;;;;;24.74;nan;99877.56;5052123;28;20461;-76
2023/08/21 01:46:45;;;;;;;7.67;6.80;;;;;;;24.67;nan;99876.63;5047586;28;20513;-76
2023/08/21 01:49:11;;;;;;;8.43;6.43;;;;;;;24.59;nan;99879.38;5049916;28;20207;-76
2023/08/21 01:51:36;;;;;;;7.77;7.13;;;;;;;24.49;nan;99874.25;5052936;28;20216;-76
2023/08/21 01:54:01;;;;;;;8.03;6.40;;;;;;;24.40;nan;99876.16;5051945;28;20235;-76
2023/08/21 01:56:27;;;;;;;6.23;5.60;;;;;;;24.32;nan;99876.22;5052819;28;20230;-75
2023/08/21 01:58:52;;;;;;;7.77;6.30;;;;;;;24.26;nan;99875.09;5054117;28;20254;-76
2023/08/21 02:01:18;;;;;;;7.53;6.90;;;;;;;24.20;nan;99878.50;5051446;28;20215;-76
2023/08/21 02:03:44;;;;;;;7.20;6.60;;;;;;;24.12;nan;99877.75;5049340;28;20298;-75
2023/08/21 02:06:10;;;;;;;8.90;7.53;;;;;;;24.02;nan;99877.97;5048473;28;20292;-75
2023/08/21 02:08:35;;;;;;;8.10;7.30;;;;;;;23.95;nan;99880.53;5048651;28;21003;-76
2023/08/21 02:11:01;;;;;;;6.90;6.30;;;;;;;23.91;nan;99879.19;5051299;28;20204;-75
2023/08/21 02:13:26;;;;;;;7.63;6.60;;;;;;;23.85;nan;99878.06;5051297;28;20258;-76
2023/08/21 02:15:52;;;;;;;8.20;7.23;;;;;;;23.80;nan;99869.72;5053179;28;20210;-76
2023/08/21 02:18:18;;;;;;;7.30;6.70;;;;;;;23.79;nan;99872.56;5051814;28;20200;-76
2023/08/21 02:20:43;;;;;;;10.70;7.93;;;;;;;23.76;nan;99872.91;5056784;28;20463;-75
2023/08/21 02:23:09;;;;;;;9.43;7.63;;;;;;;23.71;nan;99872.56;5056289;28;20676;-76
2023/08/21 02:25:34;;;;;;;8.90;8.10;;;;;;;23.68;nan;99875.59;5058261;28;20814;-75
2023/08/21 02:28:01;;;;;;;8.40;7.70;;;;;;;23.65;nan;99882.16;5055459;28;20744;-75
2023/08/21 02:30:28;;;;;;;8.90;7.97;;;;;;;23.64;nan;99881.34;5049005;28;20444;-75
2023/08/21 02:32:53;;;;;;;7.53;6.93;;;;;;;23.63;nan;99885.03;5056509;28;20516;-75
2023/08/21 02:35:20;;;;;;;8.00;7.20;;;;;;;23.58;nan;99884.72;5053690;28;20469;-76
2023/08/21 02:37:45;;;;;;;6.97;6.37;;;;;;;23.51;nan;99889.09;5053757;28;20252;-75
2023/08/21 02:40:11;;;;;;;5.67;5.07;;;;;;;23.44;nan;99888.16;5056292;28;20487;-76
2023/08/21 02:42:36;;;;;;;6.70;5.80;;;;;;;23.38;nan;99892.31;5036449;28;20472;-75
2023/08/21 02:45:07;;;;;;;5.97;5.47;;;;;;;23.36;nan;99893.53;5056108;28;20566;-75
2023/08/21 02:47:37;;;;;;;7.80;7.13;;;;;;;23.35;nan;99892.69;5053011;28;20213;-75
2023/08/21 02:50:04;;;;;;;7.10;6.40;;;;;;;23.39;nan;99890.50;5053961;28;20432;-76
2023/08/21 02:52:31;;;;;;;7.13;6.30;;;;;;;23.43;nan;99891.81;5058560;28;20972;-76
2023/08/21 02:54:57;;;;;;;7.00;6.30;;;;;;;23.46;nan;99888.78;5036971;28;20474;-76
2023/08/21 02:57:23;;;;;;;7.30;6.60;;;;;;;23.50;nan;99892.81;5057912;28;20467;-76
2023/08/21 02:59:49;;;;;;;7.33;6.63;;;;;;;23.54;nan;99888.75;5051320;28;20221;-76
2023/08/21 03:02:14;;;;;;;6.87;6.17;;;;;;;23.59;nan;99896.28;5049232;28;20456;-76
2023/08/21 03:04:40;;;;;;;7.97;7.33;;;;;;;23.61;nan;99894.25;5057987;28;20197;-76
2023/08/21 03:07:05;;;;;;;8.90;7.37;;;;;;;23.62;nan;99898.59;5058700;28;20704;-76
2023/08/21 03:09:30;;;;;;;10.70;9.70;;;;;;;23.57;nan;99900.97;5054732;28;20208;-76
2023/08/21 03:11:56;;;;;;;11.33;10.13;;;;;;;23.54;nan;99896.78;5034152;28;20206;-76
2023/08/21 03:14:21;;;;;;;10.37;9.17;;;;;;;23.52;nan;99898.84;5057127;28;20205;-76
2023/08/21 03:16:47;;;;;;;10.27;9.17;;;;;;;23.50;nan;99895.47;5058764;28;20193;-76
2023/08/21 03:19:12;;;;;;;10.57;9.50;;;;;;;23.48;nan;99905.53;5050370;28;20198;-76
2023/08/21 03:21:37;;;;;;;11.87;9.60;;;;;;;23.48;nan;99904.72;5035883;28;20208;-76
2023/08/21 03:24:03;;;;;;;13.43;10.23;;;;;;;23.50;nan;99903.53;5037161;28;20208;-75
2023/08/21 03:26:29;;;;;;;10.70;9.67;;;;;;;23.51;nan;99910.56;5035035;28;20216;-76
2023/08/21 03:28:54;;;;;;;10.53;9.20;;;;;;;23.51;nan;99912.41;5033839;28;20640;-76
2023/08/21 03:31:20;;;;;;;12.30;11.20;;;;;;;23.50;nan;99910.75;5054015;28;20201;-76
2023/08/21 03:33:46;;;;;;;10.60;9.60;;;;;;;23.50;nan;99905.38;5030224;28;20196;-76
2023/08/21 03:36:12;;;;;;;11.13;10.00;;;;;;;23.50;nan;99900.84;5034074;28;20699;-76
2023/08/21 03:38:38;;;;;;;11.90;10.53;;;;;;;23.51;nan;99905.19;5031208;28;20463;-76
2023/08/21 03:41:04;;;;;;;12.83;9.93;;;;;;;23.51;nan;99910.56;5029570;28;20976;-76
2023/08/21 03:43:32;;;;;;;11.27;10.10;;;;;;;23.52;nan;99906.88;5032604;28;20745;-76
2023/08/21 03:45:58;;;;;;;13.70;11.13;;;;;;;23.51;nan;99904.34;5054504;28;20464;-75
2023/08/21 03:48:23;;;;;;;14.33;10.10;;;;;;;23.50;nan;99905.38;5055923;28;20459;-76
2023/08/21 03:50:49;;;;;;;12.63;10.97;;;;;;;23.48;nan;99908.22;5032680;28;20482;-76
2023/08/21 03:53:17;;;;;;;11.73;10.63;;;;;;;23.50;nan;99916.09;5039975;28;21604;-76
2023/08/21 03:55:43;;;;;;;12.30;10.43;;;;;;;23.50;nan;99916.94;5060991;28;20830;-76
2023/08/21 03:58:08;;;;;;;11.67;10.50;;;;;;;23.49;nan;99917.94;5063387;28;20463;-76
2023/08/21 04:00:33;;;;;;;11.33;10.17;;;;;;;23.46;nan;99920.13;5060511;28;20193;-76
2023/08/21 04:02:59;;;;;;;10.13;9.17;;;;;;;23.38;nan;99919.13;5061242;28;20681;-76
2023/08/21 04:05:26;;;;;;;9.18;7.30;;;;;;;23.31;nan;99922.72;5041179;28;20436;-76
2023/08/21 04:07:51;;;;;;;9.17;8.27;;;;;;;23.23;nan;99928.91;5058068;28;20237;-76
2023/08/21 04:10:17;;;;;;;10.67;7.27;;;;;;;23.16;nan;99927.91;5038463;28;20234;-76
2023/08/21 04:12:42;;;;;;;8.40;7.57;;;;;;;23.14;nan;99925.44;5060733;28;20242;-76
2023/08/21 04:15:08;;;;;;;8.83;7.83;;;;;;;23.09;nan;99930.47;5061169;28;20201;-76
2023/08/21 04:17:34;;;;;;;9.60;8.60;;;;;;;23.05;nan;99928.28;5025297;28;20207;-76
2023/08/21 04:19:59;;;;;;;9.20;8.30;;;;;;;23.01;nan;99926.94;5041631;28;20451;-76
2023/08/21 04:22:25;;;;;;;8.60;7.80;;;;;;;22.98;nan;99933.50;5059439;28;20332;-76
2023/08/21 04:24:50;;;;;;;9.27;8.37;;;;;;;22.94;nan;99929.44;5038030;28;20201;-76
2023/08/21 04:27:16;;;;;;;8.87;8.07;;;;;;;22.92;nan;99947.53;5057526;28;20280;-76
2023/08/21 04:29:41;;;;;;;7.60;7.00;;;;;;;22.89;nan;99939.81;5058724;28;20517;-76
2023/08/21 04:32:07;;;;;;;7.90;7.17;;;;;;;22.82;nan;99942.34;5038567;28;20197;-76
2023/08/21 04:34:33;;;;;;;9.43;8.73;;;;;;;22.80;nan;99947.03;5039295;28;20189;-76
2023/08/21 04:36:58;;;;;;;9.23;8.43;;;;;;;22.84;nan;99940.31;5036911;28;20592;-76
2023/08/21 04:39:24;;;;;;;8.70;7.80;;;;;;;22.85;nan;99944.69;5039236;28;20196;-76
2023/08/21 04:41:49;;;;;;;8.17;7.40;;;;;;;22.84;nan;99939.50;5037635;28;20205;-76
2023/08/21 04:44:17;;;;;;;7.87;7.07;;;;;;;22.84;nan;99952.88;5035994;28;20254;-76
2023/08/21 04:46:43;;;;;;;8.43;7.70;;;;;;;22.85;nan;99950.06;5036933;28;20467;-76
2023/08/21 04:49:09;;;;;;;12.03;10.83;;;;;;;22.89;nan;99945.19;5038284;28;20787;-76
2023/08/21 04:51:35;;;;;;;9.53;8.63;;;;;;;22.87;nan;99947.19;5053323;28;20446;-76
2023/08/21 04:54:01;;;;;;;13.10;10.70;;;;;;;22.87;nan;99957.91;5039618;28;20193;-76
2023/08/21 04:56:27;;;;;;;10.40;9.40;;;;;;;22.90;nan;99953.06;5051861;28;20976;-76
2023/08/21 04:58:53;;;;;;;10.33;8.90;;;;;;;22.95;nan;99956.06;5034153;28;20804;-76
2023/08/21 05:01:19;;;;;;;11.03;9.90;;;;;;;23.01;nan;99967.13;5023766;28;20542;-75
2023/08/21 05:03:47;;;;;;;10.10;8.87;;;;;;;23.06;nan;99960.28;5031074;28;20582;-76
2023/08/21 05:06:12;;;;;;;11.30;10.20;;;;;;;23.14;nan;99968.31;5044895;28;20469;-75
2023/08/21 05:08:38;;;;;;;11.10;10.00;;;;;;;23.24;nan;99967.28;5029780;28;20201;-76
2023/08/21 05:11:06;;;;;;;11.37;10.27;;;;;;;23.34;nan;99968.75;5027625;28;20701;-75
2023/08/21 05:13:33;;;;;;;11.30;10.20;;;;;;;23.61;nan;99972.03;5028019;28;20447;-75
2023/08/21 05:15:59;;;;;;;9.80;8.80;;;;;;;24.00;nan;99973.91;5029667;28;20458;-76
2023/08/21 05:18:28;;;;;;;11.30;10.20;;;;;;;24.40;nan;99969.31;5029078;28;20871;-76
2023/08/21 05:20:55;;;;;;;11.60;10.53;;;;;;;24.80;nan;99968.19;5026672;28;20727;-76
2023/08/21 05:23:21;;;;;;;10.07;9.07;;;;;;;25.22;nan;99960.59;5028170;28;20201;-76
2023/08/21 05:25:49;;;;;;;12.67;9.43;;;;;;;25.64;nan;99965.31;5029009;28;21072;-76
2023/08/21 05:28:14;;;;;;;10.93;9.83;;;;;;;26.06;nan;99966.50;5030381;28;20641;-76
2023/08/21 05:30:40;;;;;;;9.83;8.77;;;;;;;26.42;nan;99971.03;5047675;28;20976;-76
2023/08/21 05:33:05;;;;;;;9.47;8.60;;;;;;;26.79;nan;99963.72;5029189;28;20249;-76
2023/08/21 05:35:36;;;;;;;10.07;9.07;;;;;;;27.18;nan;99970.50;5026963;28;20998;-76
2023/08/21 05:38:03;;;;;;;11.47;9.43;;;;;;;27.49;nan;99962.81;5027331;28;20235;-76
2023/08/21 05:40:29;;;;;;;11.00;9.87;;;;;;;27.81;nan;99957.78;5024989;28;20767;-76
2023/08/21 05:42:54;;;;;;;10.40;9.30;;;;;;;28.04;nan;99962.03;5034087;28;20844;-76
2023/08/21 05:45:20;;;;;;;9.43;8.63;;;;;;;28.26;nan;99960.03;5028784;28;20213;-76
2023/08/21 05:47:45;;;;;;;10.23;9.20;;;;;;;28.52;nan;99959.28;5047964;28;22568;-75
2023/08/21 05:50:11;;;;;;;10.30;9.30;;;;;;;28.68;nan;99965.09;5057280;28;20261;-76
2023/08/21 05:52:37;;;;;;;9.63;8.83;;;;;;;28.63;nan;99959.50;5037371;28;20410;-76
2023/08/21 05:55:04;;;;;;;10.87;9.80;;;;;;;28.39;nan;99966.28;5037154;28;20544;-75
2023/08/21 05:57:29;;;;;;;12.80;9.13;;;;;;;28.10;nan;99969.31;5054105;28;20259;-77
2023/08/21 05:59:55;;;;;;;10.67;9.67;;;;;;;27.87;nan;99961.53;5022805;28;20493;-76
2023/08/21 06:02:21;;;;;;;14.07;9.97;;;;;;;27.70;nan;99966.44;5059435;28;20514;-76
2023/08/21 06:04:47;;;;;;;10.40;9.30;;;;;;;27.50;nan;99972.56;5036504;28;20236;-76
2023/08/21 06:07:12;;;;;;;9.90;8.87;;;;;;;27.23;nan;99982.34;5039655;28;20454;-76
2023/08/21 06:09:38;;;;;;;10.63;9.53;;;;;;;27.01;nan;99981.53;5055133;28;20250;-76
2023/08/21 06:12:04;;;;;;;11.17;10.07;;;;;;;27.08;nan;99979.72;5036237;28;20288;-76
2023/08/21 06:14:31;;;;;;;11.27;10.30;;;;;;;27.53;nan;99977.56;5034286;28;20675;-77
2023/08/21 06:17:01;;;;;;;11.27;9.63;;;;;;;28.13;nan;99977.84;5034999;28;20808;-77
2023/08/21 06:19:27;;;;;;;12.10;10.30;;;;;;;28.68;nan;99975.09;5038394;28;20446;-78
2023/08/21 06:21:52;;;;;;;10.03;9.03;;;;;;;29.28;nan;99975.91;5037660;28;20480;-76
2023/08/21 06:24:18;;;;;;;11.20;9.40;;;;;;;29.87;nan;99970.59;5035694;28;20476;-77
2023/08/21 06:26:43;;;;;;;9.90;9.00;;;;;;;30.27;nan;99975.81;5035075;28;20303;-77
2023/08/21 06:29:09;;;;;;;10.20;9.10;;;;;;;30.61;nan;99982.69;5032723;28;20409;-76
2023/08/21 06:31:34;;;;;;;11.97;10.57;;;;;;;30.98;nan;99983.66;5047549;28;20197;-76
2023/08/21 06:34:00;;;;;;;10.03;9.07;;;;;;;31.39;nan;99989.59;5033018;28;20643;-76
2023/08/21 06:36:25;;;;;;;11.93;10.70;;;;;;;31.81;nan;99985.16;5038605;28;20201;-76
2023/08/21 06:38:51;;;;;;;10.60;9.50;;;;;;;32.05;nan;99985.28;5047785;28;20220;-77
2023/08/21 06:41:16;;;;;;;10.70;8.70;;;;;;;32.06;nan;99993.22;5047343;28;20204;-76
2023/08/21 06:43:42;;;;;;;11.50;9.70;;;;;;;32.17;nan;99994.31;5049693;28;20249;-76
2023/08/21 06:46:07;;;;;;;11.10;10.00;;;;;;;32.30;nan;99999.56;5048008;28;20600;-76
2023/08/21 06:48:34;;;;;;;10.60;9.50;;;;;;;32.40;nan;99997.09;5048906;28;20197;-76
2023/08/21 06:53:53;;;;;;;10.60;9.63;;;;;;;32.64;nan;99994.50;4990692;28;20560;-80
2023/08/21 06:56:18;;;;;;;10.10;9.10;;;;;;;32.75;nan;99990.97;4998892;28;20968;-80
2023/08/21 06:58:44;;;;;;;10.63;9.63;;;;;;;32.73;nan;99986.81;5011985;28;20195;-81
2023/08/21 07:01:09;;;;;;;9.43;8.67;;;;;;;32.39;nan;99997.34;5005483;28;20718;-82
2023/08/21 07:03:35;;;;;;;10.67;9.60;;;;;;;31.85;nan;100002.63;5007369;28;20716;-81
2023/08/21 07:06:00;;;;;;;11.10;9.90;;;;;;;31.37;nan;100006.09;5007200;28;20437;-80
2023/08/21 07:08:26;;;;;;;11.33;10.43;;;;;;;30.91;nan;100001.06;5006150;28;20884;-80
2023/08/21 07:10:53;;;;;;;14.30;10.17;;;;;;;30.31;nan;99996.00;5004016;28;20591;-80
2023/08/21 07:13:19;;;;;;;10.53;9.57;;;;;;;29.80;nan;99997.66;5009156;28;20559;-80
2023/08/21 07:15:45;;;;;;;10.87;9.83;;;;;;;29.58;nan;100002.50;5008428;28;20457;-80
2023/08/21 07:18:11;;;;;;;10.27;9.30;;;;;;;29.79;nan;99998.72;5011308;28;20453;-81
2023/08/21 07:20:36;;;;;;;12.70;9.57;;;;;;;30.23;nan;99999.81;5003161;28;20471;-81
2023/08/21 07:23:02;;;;;;;11.63;8.97;;;;;;;30.71;nan;99993.88;5005462;28;20532;-80
2023/08/21 07:25:28;;;;;;;11.17;10.10;;;;;;;31.16;nan;99995.59;5003959;28;20214;-81
2023/08/21 07:27:54;;;;;;;10.17;9.27;;;;;;;31.73;nan;100001.72;5006595;28;20301;-81
2023/08/21 07:30:19;;;;;;;27.97;11.03;;;;;;;32.24;nan;99992.31;5003654;28;20491;-81
2023/08/21 07:32:45;;;;;;;9.30;8.40;;;;;;;32.81;nan;99995.50;5000605;28;20464;-82
2023/08/21 07:35:11;;;;;;;9.90;9.00;;;;;;;33.26;nan;99985.94;5007913;28;20198;-82
2023/08/21 07:37:36;;;;;;;10.87;8.53;;;;;;;33.64;nan;99990.06;5005825;28;20214;-82
2023/08/21 07:40:02;;;;;;;10.33;9.40;;;;;;;33.81;nan;99992.88;5007101;28;20703;-80
2023/08/21 07:42:27;;;;;;;10.73;9.10;;;;;;;33.71;nan;99990.78;5006458;28;20209;-81
2023/08/21 07:44:53;;;;;;;10.03;9.03;;;;;;;33.62;nan;99994.94;5002034;28;20207;-81
2023/08/21 07:47:18;;;;;;;10.83;8.40;;;;;;;33.60;nan;99994.34;5006341;28;20217;-82
2023/08/21 07:49:44;;;;;;;12.03;8.90;;;;;;;33.81;nan;99993.72;5009099;28;20895;-81
2023/08/21 07:52:09;;;;;;;9.83;8.87;;;;;;;33.93;nan;99993.69;5007111;28;20219;-80
2023/08/21 07:54:35;;;;;;;10.57;9.43;;;;;;;34.02;nan;99992.22;5006956;28;20898;-84
2023/08/21 07:57:03;;;;;;;11.43;10.00;;;;;;;34.23;nan;99995.38;5006916;28;20241;-82
2023/08/21 07:59:29;;;;;;;11.87;8.90;;;;;;;34.31;nan;99997.72;5003836;28;20465;-82
2023/08/21 08:01:55;;;;;;;9.80;9.00;;;;;;;34.33;nan;99995.56;5013098;28;20460;-82
2023/08/21 08:04:21;;;;;;;10.00;9.00;;;;;;;34.35;nan;99996.97;5015134;28;20195;-82
2023/08/21 08:06:46;;;;;;;11.93;10.73;;;;;;;34.40;nan;99993.50;5016086;28;20448;-82
2023/08/21 08:09:12;;;;;;;11.10;9.97;;;;;;;34.46;nan;99994.41;5019186;28;20293;-82
2023/08/21 08:11:37;;;;;;;10.27;8.43;;;;;;;34.66;nan;99988.53;5012609;28;20202;-83
2023/08/21 08:14:02;;;;;;;11.63;10.03;;;;;;;34.81;nan;99997.00;5008008;28;20210;-83
2023/08/21 08:16:28;;;;;;;9.93;9.03;;;;;;;34.82;nan;99987.72;5009687;28;20232;-83
2023/08/21 08:18:53;;;;;;;13.90;9.80;;;;;;;34.79;nan;99991.75;5008847;28;20206;-82
2023/08/21 08:21:19;;;;;;;11.13;10.17;;;;;;;34.82;nan;99995.91;5009961;28;20324;-83
2023/08/21 08:23:44;;;;;;;12.70;10.03;;;;;;;35.08;nan;99999.91;5010261;28;20198;-82
2023/08/21 08:26:10;;;;;;;10.60;9.53;;;;;;;35.30;nan;100005.41;5009020;28;20549;-83
2023/08/21 08:28:36;;;;;;;9.97;8.87;;;;;;;35.38;nan;99996.78;5011962;28;20274;-82
2023/08/21 08:31:01;;;;;;;11.20;10.00;;;;;;;35.33;nan;99999.44;5010235;28;20400;-82
2023/08/21 08:33:27;;;;;;;11.10;9.17;;;;;;;35.32;nan;100000.50;5010348;28;20232;-83
2023/08/21 08:35:52;;;;;;;9.97;8.80;;;;;;;35.33;nan;99999.44;5009044;28;20297;-83
2023/08/21 08:38:19;;;;;;;9.20;8.40;;;;;;;35.42;nan;99992.47;5009830;28;20252;-82
2023/08/21 08:40:46;;;;;;;9.57;8.70;;;;;;;35.52;nan;99996.44;5007401;28;20518;-82
2023/08/21 08:43:12;;;;;;;9.80;9.00;;;;;;;35.36;nan;99988.00;5013021;28;20514;-82
2023/08/21 08:45:40;;;;;;;11.00;9.40;;;;;;;35.27;nan;99995.00;5010842;28;20485;-83
2023/08/21 08:48:07;;;;;;;10.13;9.23;;;;;;;35.07;nan;100000.13;5010529;28;20472;-82
2023/08/21 08:50:34;;;;;;;9.67;8.73;;;;;;;35.01;nan;99988.28;4987792;28;20592;-83
2023/08/21 08:53:00;;;;;;;10.77;8.67;;;;;;;34.97;nan;99987.13;5007792;28;20469;-82
2023/08/21 08:55:26;;;;;;;9.70;8.90;;;;;;;34.79;nan;99980.84;5008714;28;21092;-82
2023/08/21 08:57:52;;;;;;;9.90;9.10;;;;;;;34.59;nan;99980.50;5008536;28;20893;-82
2023/08/21 09:00:20;;;;;;;11.03;10.07;;;;;;;34.44;nan;99981.03;5004815;28;20235;-83
2023/08/21 09:02:46;;;;;;;9.83;8.90;;;;;;;34.36;nan;99973.25;5005893;28;20552;-83
2023/08/21 09:05:12;;;;;;;9.67;8.67;;;;;;;34.23;nan;99976.28;5007514;28;20468;-83
2023/08/21 09:07:38;;;;;;;8.93;8.13;;;;;;;33.95;nan;99977.91;4989582;28;20495;-82
2023/08/21 09:10:04;;;;;;;9.93;8.87;;;;;;;33.78;nan;99972.38;5010454;28;20453;-83
2023/08/21 09:12:32;;;;;;;10.70;9.70;;;;;;;33.82;nan;99972.75;5007248;28;20206;-83
2023/08/21 09:14:59;;;;;;;10.73;8.93;;;;;;;33.93;nan;99972.69;5009968;28;20539;-83
2023/08/21 09:17:26;;;;;;;8.60;7.80;;;;;;;33.79;nan;99974.06;5008436;28;20473;-82
2023/08/21 09:19:51;;;;;;;9.63;8.63;;;;;;;33.80;nan;99975.69;5009857;28;21115;-82
2023/08/21 09:22:18;;;;;;;8.87;8.17;;;;;;;33.81;nan;99968.34;5009930;28;20587;-82
2023/08/21 09:25:19;;;;;;;8.90;8.10;;;;;;;33.53;nan;99969.97;5007834;28;20507;-82
2023/08/21 09:27:44;;;;;;;9.97;9.00;;;;;;;33.45;nan;99973.84;4911782;28;20492;-78
2023/08/21 09:30:14;;;;;;;10.53;9.20;;;;;;;33.54;nan;99978.94;4977935;28;20887;-77
2023/08/21 09:32:57;;;;;;;12.40;8.90;;;;;;;33.62;nan;99974.00;4998687;28;21494;-78
2023/08/21 09:35:23;;;;;;;11.05;8.50;;;;;;;33.55;nan;99972.47;4998239;28;20539;-78
2023/08/21 09:37:52;;;;;;;8.33;7.60;;;;;;;33.53;nan;99966.38;5000910;28;20295;-78
2023/08/21 09:40:19;;;;;;;8.47;7.67;;;;;;;33.60;nan;99975.28;5004619;28;20448;-78
2023/08/21 09:42:44;;;;;;;10.13;9.23;;;;;;;33.71;nan;99967.09;5005795;28;20465;-77
2023/08/21 09:45:10;;;;;;;8.63;7.63;;;;;;;33.76;nan;99965.53;5001519;28;20495;-78
2023/08/21 09:47:38;;;;;;;8.90;7.83;;;;;;;33.78;nan;99963.38;5008975;28;20536;-78
2023/08/21 09:50:04;;;;;;;10.07;8.50;;;;;;;33.76;nan;99962.81;4999246;28;20710;-78
2023/08/21 09:52:30;;;;;;;9.17;8.00;;;;;;;33.92;nan;99960.16;5002942;28;21015;-78
2023/08/21 09:54:56;;;;;;;7.73;6.87;;;;;;;34.08;nan;99955.00;5000881;28;20847;-78
2023/08/21 09:57:23;;;;;;;7.73;6.50;;;;;;;34.14;nan;99954.88;4989496;28;20464;-78
2023/08/21 09:59:53;;;;;;;7.90;7.10;;;;;;;34.12;nan;99954.28;4998501;28;20445;-78
2023/08/21 10:02:19;;;;;;;9.80;8.37;;;;;;;34.15;nan;99951.06;5005171;28;20783;-78
2023/08/21 10:04:45;;;;;;;8.30;7.63;;;;;;;34.21;nan;99954.69;4993684;28;20452;-78
2023/08/21 10:07:12;;;;;;;9.83;7.10;;;;;;;34.31;nan;99959.53;5009048;28;20468;-78
2023/08/21 10:09:41;;;;;;;9.33;7.77;;;;;;;34.38;nan;99949.31;4991079;28;20458;-78
2023/08/21 10:12:09;;;;;;;8.13;7.30;;;;;;;34.53;nan;99946.00;4990803;28;20992;-78
2023/08/21 10:14:36;;;;;;;8.13;7.27;;;;;;;34.57;nan;99948.03;4990536;28;20833;-78
2023/08/21 10:17:02;;;;;;;9.60;8.00;;;;;;;34.51;nan;99949.00;4990623;28;20481;-78
2023/08/21 10:19:31;;;;;;;8.40;7.70;;;;;;;34.51;nan;99943.53;4987741;28;20453;-78
2023/08/21 10:21:59;;;;;;;8.30;7.50;;;;;;;34.51;nan;99926.31;5000870;28;20199;-78
2023/08/21 10:24:40;;;;;;;9.67;7.90;;;;;;;34.62;nan;99932.78;4979513;28;20828;-78
2023/08/21 10:27:08;;;;;;;9.73;7.50;;;;;;;34.76;nan;99939.59;4996339;28;20476;-78
2023/08/21 10:29:34;;;;;;;8.87;8.00;;;;;;;34.86;nan;99933.44;4995466;28;20836;-78
2023/08/21 10:32:04;;;;;;;9.67;8.73;;;;;;;34.87;nan;99930.47;4998140;28;20462;-78
2023/08/21 10:34:37;;;;;;;11.53;7.97;;;;;;;34.93;nan;99934.13;4998273;28;20343;-78
2023/08/21 10:37:12;;;;;;;9.27;8.27;;;;;;;34.93;nan;99921.28;4993957;28;20458;-78
2023/08/21 10:39:54;;;;;;;8.83;7.93;;;;;;;35.02;nan;99922.50;4997476;28;20449;-78
2023/08/21 10:42:36;;;;;;;7.57;6.87;;;;;;;35.04;nan;99914.06;4997433;28;20521;-78
2023/08/21 10:45:10;;;;;;;9.23;8.33;;;;;;;35.11;nan;99914.75;4999820;28;20473;-78
2023/08/21 10:47:36;;;;;;;8.40;7.70;;;;;;;35.17;nan;99911.00;5004100;28;20464;-78
2023/08/21 10:50:07;;;;;;;8.80;7.93;;;;;;;35.17;nan;99911.00;5001062;28;20461;-78
2023/08/21 10:52:37;;;;;;;10.40;9.30;;;;;;;35.21;nan;99914.06;5000166;28;20219;-77
2023/08/21 10:55:04;;;;;;;8.13;7.43;;;;;;;35.13;nan;99903.56;4991389;28;20485;-78
2023/08/21 10:57:31;;;;;;;9.10;8.20;;;;;;;35.06;nan;99903.72;4992452;28;20752;-78
2023/08/21 10:59:58;;;;;;;9.20;8.30;;;;;;;35.07;nan;99901.84;4986795;28;20910;-78
2023/08/21 11:02:26;;;;;;;8.23;7.53;;;;;;;35.16;nan;99895.72;4988531;28;20457;-78
2023/08/21 11:04:52;;;;;;;9.00;8.23;;;;;;;35.14;nan;99903.34;4990928;28;20935;-77
2023/08/21 11:07:18;;;;;;;8.73;8.03;;;;;;;35.12;nan;99896.47;4986657;28;20480;-78
2023/08/21 11:09:44;;;;;;;8.77;8.07;;;;;;;35.12;nan;99896.47;4987847;28;20826;-78
2023/08/21 11:12:11;;;;;;;10.07;8.17;;;;;;;35.11;nan;99894.81;4993063;28;20565;-78
2023/08/21 11:14:37;;;;;;;8.10;7.00;;;;;;;35.11;nan;99892.09;4997379;28;20195;-78
2023/08/21 11:17:03;;;;;;;10.00;7.90;;;;;;;35.12;nan;99902.75;4998790;28;20456;-78
2023/08/21 11:19:33;;;;;;;7.63;6.93;;;;;;;35.14;nan;99888.84;4986006;28;20462;-78
2023/08/21 11:22:03;;;;;;;9.20;8.30;;;;;;;35.24;nan;99894.44;4982418;28;20199;-78
2023/08/21 11:24:38;;;;;;;8.70;7.90;;;;;;;35.29;nan;99897.22;4987485;28;20842;-78
2023/08/21 11:27:14;;;;;;;8.30;7.50;;;;;;;35.29;nan;99886.31;4976840;28;20822;-78
2023/08/21 11:29:47;;;;;;;10.43;7.57;;;;;;;35.37;nan;99885.84;4986658;28;21073;-78
2023/08/21 11:32:18;;;;;;;9.00;8.30;;;;;;;35.44;nan;99883.78;4975332;28;20461;-78
2023/08/21 11:34:47;;;;;;;8.97;8.17;;;;;;;35.51;nan;99885.47;4989448;28;20457;-78
2023/08/21 11:37:13;;;;;;;8.40;7.70;;;;;;;35.44;nan;99881.03;4987683;28;20473;-78
2023/08/21 11:39:47;;;;;;;8.80;7.43;;;;;;;35.24;nan;99883.50;4986374;28;20815;-78
2023/08/21 11:42:14;;;;;;;7.13;6.43;;;;;;;35.00;nan;99886.47;4987041;28;20209;-78
2023/08/21 11:44:44;;;;;;;8.60;7.80;;;;;;;34.90;nan;99883.59;4987506;28;20457;-77